Okazaki, Japan
Current Conditions -  °F | °C
As of 6:00 PM on Thursday 23 Oct 2014 (Local Time) from RJGG Reporting Station
Broken Clouds Broken Clouds  
Wind Chill: 66°   Ceiling: 6000
Heat Index: 66°   Visibility: 6mi
Dew Point: 54°   Wind: 16mph
Humidity: 64%   Direction: 320°NW
Pressure: 30.03"   Gusts: NA
Location:  34.96°N, 137.16°E
Report Text: RJGG 230900Z 32014KT 9999 FEW030 BKN060 19/12 Q1017 NOSIG
Loading
Personal Weather Stations






























Interactive Weather Map
Tropical Storm Tracking
New forecast layout! Learn more

10-Day Weather Forecast

Advertisements
Track Severe Weather on mobile